Time;durP1;ratioP1;P1;durP2;ratioP2;P2;SDS_P1;SDS_P2;PMS_P1;PMS_P2;Temp;Humidity;BMP_temperature;BMP_pressure;BME280_temperature;BME280_humidity;BME280_pressure;Samples;Min_cycle;Max_cycle;Signal;HPM_P1;HPM_P2
2024/03/12 00:04:22;;;;;;;50.00;36.05;;;;;;;-146.18;100.00;67994.34;10461990;27;20118;-76
2024/03/12 00:09:19;;;;;;;46.78;32.58;;;;;;;-146.18;100.00;67994.34;10449821;27;20039;-75
2024/03/12 00:14:15;;;;;;;50.90;33.22;;;;;;;-146.18;100.00;67994.34;10447744;27;20043;-72
2024/03/12 00:19:12;;;;;;;52.05;32.72;;;;;;;-146.18;100.00;67994.34;10453581;27;20406;-72
2024/03/12 00:24:10;;;;;;;51.47;33.17;;;;;;;-146.18;100.00;67994.34;10462537;27;20046;-72
2024/03/12 00:29:07;;;;;;;46.53;33.78;;;;;;;-146.18;100.00;67994.34;10444962;27;20066;-72
2024/03/12 00:34:04;;;;;;;52.83;33.13;;;;;;;-146.18;100.00;67994.34;10447889;27;20043;-73
2024/03/12 00:39:02;;;;;;;47.47;33.28;;;;;;;-146.18;100.00;67994.34;10451846;27;20043;-72
2024/03/12 00:44:00;;;;;;;55.95;35.13;;;;;;;-146.18;100.00;67994.34;10446792;27;20042;-75
2024/03/12 00:48:57;;;;;;;54.45;33.15;;;;;;;-146.18;100.00;67994.34;10446869;27;20107;-74
2024/03/12 00:53:53;;;;;;;47.75;31.77;;;;;;;-146.18;100.00;67994.34;10454767;27;20051;-74
2024/03/12 00:58:52;;;;;;;40.90;32.45;;;;;;;-146.18;100.00;67994.34;10469630;27;20073;-76
2024/03/12 01:03:48;;;;;;;44.33;32.40;;;;;;;-146.18;100.00;67994.34;10454957;27;20047;-72
2024/03/12 01:08:46;;;;;;;47.55;32.90;;;;;;;-146.18;100.00;67994.34;10447808;27;20053;-74
2024/03/12 01:13:44;;;;;;;50.38;34.47;;;;;;;-146.18;100.00;67994.34;10444629;27;20067;-73
2024/03/12 01:18:40;;;;;;;50.28;33.63;;;;;;;-146.18;100.00;67994.34;10454301;27;20050;-74
2024/03/12 01:23:37;;;;;;;55.58;33.63;;;;;;;-146.18;100.00;67994.34;10455945;27;20534;-73
2024/03/12 01:28:34;;;;;;;52.05;34.88;;;;;;;-146.18;100.00;67994.34;10458474;27;20096;-73
2024/03/12 01:33:31;;;;;;;46.97;32.40;;;;;;;-146.18;100.00;67994.34;10460377;27;20525;-73
2024/03/12 01:38:27;;;;;;;55.47;33.28;;;;;;;-146.18;100.00;67994.34;10453705;27;20042;-73
2024/03/12 01:43:24;;;;;;;51.25;32.75;;;;;;;-146.18;100.00;67994.34;10457089;27;20047;-76
2024/03/12 01:48:24;;;;;;;47.95;33.63;;;;;;;-146.18;100.00;67994.34;10451316;27;20120;-74
2024/03/12 01:53:22;;;;;;;51.25;35.25;;;;;;;-146.18;100.00;67994.34;10460785;27;20157;-75
2024/03/12 01:58:18;;;;;;;53.97;35.85;;;;;;;-146.18;100.00;67994.34;10451263;27;20046;-76
2024/03/12 02:03:18;;;;;;;50.90;35.15;;;;;;;-146.18;100.00;67994.34;10442438;27;20062;-74
2024/03/12 02:08:16;;;;;;;50.00;35.22;;;;;;;-146.18;100.00;67994.34;10456057;27;20047;-76
2024/03/12 02:13:13;;;;;;;50.08;35.03;;;;;;;-146.18;100.00;67994.34;10457610;27;20047;-75
2024/03/12 02:18:10;;;;;;;51.70;34.88;;;;;;;-146.18;100.00;67994.34;10441013;27;20055;-73
2024/03/12 02:23:06;;;;;;;53.70;34.88;;;;;;;-146.18;100.00;67994.34;10451282;27;20051;-73
2024/03/12 02:28:03;;;;;;;53.00;37.80;;;;;;;-146.18;100.00;67994.34;10444790;27;20058;-74
2024/03/12 02:33:02;;;;;;;51.25;35.92;;;;;;;-146.18;100.00;67994.34;10466828;27;20051;-73
2024/03/12 02:37:59;;;;;;;52.75;35.22;;;;;;;-146.18;100.00;67994.34;10441729;27;20039;-74
2024/03/12 02:42:56;;;;;;;55.95;36.83;;;;;;;-146.18;100.00;67994.34;10454622;27;20101;-75
2024/03/12 02:47:52;;;;;;;50.22;35.83;;;;;;;-146.18;100.00;67994.34;10462892;27;20047;-74
2024/03/12 02:52:49;;;;;;;51.85;35.33;;;;;;;-146.18;100.00;67994.34;10456950;27;20042;-76
2024/03/12 02:57:47;;;;;;;51.20;36.53;;;;;;;-146.18;100.00;67994.34;10450609;27;20406;-75
2024/03/12 03:02:44;;;;;;;52.47;35.95;;;;;;;-146.18;100.00;67994.34;10449244;27;20043;-75
2024/03/12 03:07:41;;;;;;;48.55;35.22;;;;;;;-146.18;100.00;67994.34;10472125;27;20062;-74
2024/03/12 03:12:39;;;;;;;47.20;34.72;;;;;;;-146.18;100.00;67994.34;10448084;27;20047;-75
2024/03/12 03:17:36;;;;;;;47.72;34.83;;;;;;;-146.18;100.00;67994.34;10462498;27;20073;-75
2024/03/12 03:22:32;;;;;;;42.65;33.47;;;;;;;-146.18;100.00;67994.34;10451234;27;20046;-74
2024/03/12 03:27:29;;;;;;;44.20;34.20;;;;;;;-146.18;100.00;67994.34;10458272;27;20122;-74
2024/03/12 03:32:26;;;;;;;41.72;33.08;;;;;;;-146.18;100.00;67994.34;10451807;27;20039;-74
2024/03/12 03:37:22;;;;;;;41.45;33.17;;;;;;;-146.18;100.00;67994.34;10460609;27;20043;-74
2024/03/12 03:42:18;;;;;;;39.42;31.77;;;;;;;-146.18;100.00;67994.34;10447989;27;20047;-73
2024/03/12 03:47:15;;;;;;;37.17;32.35;;;;;;;-146.18;100.00;67994.34;10445797;27;20498;-74
2024/03/12 03:52:11;;;;;;;36.78;30.80;;;;;;;-146.18;100.00;67994.34;10457877;27;20065;-74
2024/03/12 03:57:09;;;;;;;38.97;31.58;;;;;;;-146.18;100.00;67994.34;10461680;27;20048;-75
2024/03/12 04:02:06;;;;;;;35.97;31.08;;;;;;;-146.18;100.00;67994.34;10465574;27;20051;-75
2024/03/12 04:07:04;;;;;;;34.72;30.20;;;;;;;-146.18;100.00;67994.34;10457953;27;20066;-73
2024/03/12 04:12:01;;;;;;;38.22;31.58;;;;;;;-146.18;100.00;67994.34;10458778;27;20051;-75
2024/03/12 04:16:58;;;;;;;40.30;32.67;;;;;;;-146.18;100.00;67994.34;10460501;27;20506;-74
2024/03/12 04:21:54;;;;;;;40.72;31.63;;;;;;;-146.18;100.00;67994.34;10464960;27;20045;-74
2024/03/12 04:26:52;;;;;;;39.72;31.95;;;;;;;-146.18;100.00;67994.34;10454519;27;20053;-73
2024/03/12 04:31:48;;;;;;;34.50;30.33;;;;;;;-146.18;100.00;67994.34;10447644;27;20038;-70
2024/03/12 04:36:46;;;;;;;37.88;31.25;;;;;;;-146.18;100.00;67994.34;10451344;27;20047;-73
2024/03/12 04:41:43;;;;;;;38.00;31.13;;;;;;;-146.18;100.00;67994.34;10457389;27;20142;-76
2024/03/12 04:46:45;;;;;;;35.80;31.17;;;;;;;-146.18;100.00;67994.34;10462257;27;20046;-76
2024/03/12 04:51:43;;;;;;;39.15;31.63;;;;;;;-146.18;100.00;67994.34;10455500;27;20069;-75
2024/03/12 04:56:40;;;;;;;36.65;31.52;;;;;;;-146.18;100.00;67994.34;10460592;27;20047;-75
2024/03/12 05:01:36;;;;;;;33.75;29.85;;;;;;;-146.18;100.00;67994.34;10452815;27;20043;-75
2024/03/12 05:06:33;;;;;;;33.53;30.00;;;;;;;-146.18;100.00;67994.34;10461966;27;20043;-75
2024/03/12 05:11:30;;;;;;;35.70;30.75;;;;;;;-146.18;100.00;67994.34;10453869;27;20046;-72
2024/03/12 05:16:26;;;;;;;33.20;29.67;;;;;;;-146.18;100.00;67994.34;10453743;27;20511;-72
2024/03/12 05:21:24;;;;;;;37.55;31.45;;;;;;;-146.18;100.00;67994.34;10445514;27;20054;-72
2024/03/12 05:26:28;;;;;;;34.80;29.35;;;;;;;-146.18;100.00;67994.34;10438155;27;20065;-73
2024/03/12 05:31:38;;;;;;;33.95;29.17;;;;;;;-146.18;100.00;67994.34;10453046;27;20046;-72
2024/03/12 05:36:40;;;;;;;36.80;30.08;;;;;;;-146.18;100.00;67994.34;10460013;27;20817;-75
2024/03/12 05:48:06;;;;;;;34.78;30.15;;;;;;;-146.18;100.00;67994.34;10455954;27;20141;-75
2024/03/12 05:52:20;;;;;;;33.22;29.33;;;;;;;-146.18;100.00;67994.34;10447808;27;20043;-75
2024/03/12 05:57:18;;;;;;;36.78;30.58;;;;;;;-146.18;100.00;67994.34;10448929;27;20121;-76
2024/03/12 06:02:14;;;;;;;34.33;30.65;;;;;;;-146.18;100.00;67994.34;10444560;27;20043;-77
2024/03/12 06:07:12;;;;;;;34.38;30.67;;;;;;;-146.18;100.00;67994.34;10448859;27;20847;-74
2024/03/12 06:12:09;;;;;;;36.30;30.50;;;;;;;-146.18;100.00;67994.34;10455237;27;20066;-75
2024/03/12 06:17:05;;;;;;;32.85;29.50;;;;;;;-146.18;100.00;67994.34;10440024;27;20044;-75
2024/03/12 06:22:02;;;;;;;35.92;31.00;;;;;;;-146.18;100.00;67994.34;10442760;27;20157;-75
2024/03/12 06:27:01;;;;;;;35.35;30.30;;;;;;;-146.18;100.00;67994.34;10448330;27;20142;-75
2024/03/12 06:31:59;;;;;;;35.35;29.50;;;;;;;-146.18;100.00;67994.34;10434294;27;20923;-75
2024/03/12 06:36:58;;;;;;;32.83;29.27;;;;;;;-146.18;100.00;67994.34;10438795;27;20050;-76
2024/03/12 06:41:54;;;;;;;34.53;30.75;;;;;;;-146.18;100.00;67994.34;10454055;27;20574;-75
2024/03/12 06:46:51;;;;;;;35.33;31.25;;;;;;;-146.18;100.00;67994.34;10450798;27;20510;-74
2024/03/12 06:51:47;;;;;;;35.00;31.30;;;;;;;-146.18;100.00;67994.34;10441981;27;20081;-76
2024/03/12 06:56:46;;;;;;;34.78;30.23;;;;;;;-146.18;100.00;67994.34;10459592;27;20047;-75
2024/03/12 07:01:42;;;;;;;34.75;30.02;;;;;;;-146.18;100.00;67994.34;10466285;27;20414;-75
2024/03/12 07:06:41;;;;;;;33.08;29.67;;;;;;;-146.18;100.00;67994.34;10466981;27;20139;-75
2024/03/12 07:11:40;;;;;;;33.50;29.77;;;;;;;-146.18;100.00;67994.34;10448571;27;20410;-74
2024/03/12 07:16:41;;;;;;;37.08;31.20;;;;;;;-146.18;100.00;67994.34;10464627;27;20039;-75
2024/03/12 07:21:39;;;;;;;36.75;28.95;;;;;;;-146.18;100.00;67994.34;10454922;27;20092;-77
2024/03/12 07:26:35;;;;;;;35.40;29.67;;;;;;;-146.18;100.00;67994.34;10462179;27;20131;-76
2024/03/12 07:31:33;;;;;;;33.38;29.38;;;;;;;-146.18;100.00;67994.34;10449720;27;20047;-77
2024/03/12 07:36:29;;;;;;;32.88;28.00;;;;;;;-146.18;100.00;67994.34;10447021;27;20122;-76
2024/03/12 07:41:26;;;;;;;38.15;30.02;;;;;;;-146.18;100.00;67994.34;10455311;27;20554;-77
2024/03/12 07:46:23;;;;;;;33.88;28.70;;;;;;;-146.18;100.00;67994.34;10451330;27;20040;-72
2024/03/12 07:51:20;;;;;;;34.97;28.38;;;;;;;-146.18;100.00;67994.34;10450874;27;20086;-74
2024/03/12 07:56:18;;;;;;;31.70;27.92;;;;;;;-146.18;100.00;67994.34;10455662;27;20502;-75
2024/03/12 08:01:15;;;;;;;30.27;26.90;;;;;;;-146.18;100.00;67994.34;10451434;27;20047;-74
2024/03/12 08:06:11;;;;;;;30.55;27.00;;;;;;;-146.18;100.00;67994.34;10455008;27;20120;-73
2024/03/12 08:11:08;;;;;;;33.25;25.83;;;;;;;-146.18;100.00;67994.34;10443784;27;20058;-73
2024/03/12 08:16:04;;;;;;;31.50;26.45;;;;;;;-146.18;100.00;67994.34;10454445;27;20047;-75
2024/03/12 08:21:02;;;;;;;28.60;25.70;;;;;;;-146.18;100.00;67994.34;10454536;27;20055;-74
2024/03/12 08:25:58;;;;;;;27.95;24.92;;;;;;;-146.18;100.00;67994.34;10447938;27;20429;-75
2024/03/12 08:30:56;;;;;;;32.53;27.15;;;;;;;-146.18;100.00;67994.34;10448205;27;20129;-75
2024/03/12 08:36:04;;;;;;;32.38;25.75;;;;;;;-146.18;100.00;67994.34;10462005;27;20158;-74
2024/03/12 08:41:01;;;;;;;31.63;25.80;;;;;;;-146.18;100.00;67994.34;10447939;27;20407;-74
2024/03/12 08:45:58;;;;;;;31.75;25.58;;;;;;;-146.18;100.00;67994.34;10453865;27;20073;-75
2024/03/12 08:50:56;;;;;;;31.92;24.88;;;;;;;-146.18;100.00;67994.34;10448445;27;20058;-76
2024/03/12 08:55:52;;;;;;;30.70;26.08;;;;;;;-146.18;100.00;67994.34;10440896;27;20533;-74
2024/03/12 09:00:49;;;;;;;29.63;24.30;;;;;;;-146.18;100.00;67994.34;10440460;27;20073;-73
2024/03/12 09:05:45;;;;;;;33.17;25.67;;;;;;;-146.18;100.00;67994.34;10457686;27;20057;-74
2024/03/12 09:10:42;;;;;;;31.45;23.70;;;;;;;-146.18;100.00;67994.34;10441475;27;20461;-74
2024/03/12 09:15:41;;;;;;;31.00;24.23;;;;;;;-146.18;100.00;67994.34;10452099;27;20495;-74
2024/03/12 09:20:37;;;;;;;26.95;22.25;;;;;;;-146.18;100.00;67994.34;10476299;27;20062;-76
2024/03/12 09:25:34;;;;;;;29.45;22.92;;;;;;;-146.18;100.00;67994.34;10461654;27;20042;-74
2024/03/12 09:30:31;;;;;;;25.38;21.08;;;;;;;-146.18;100.00;67994.34;10453818;27;20049;-74
2024/03/12 09:35:28;;;;;;;25.10;20.63;;;;;;;-146.18;100.00;67994.34;10453037;27;20592;-74
2024/03/12 09:40:24;;;;;;;28.23;20.88;;;;;;;-146.18;100.00;67994.34;10458701;27;20290;-74
2024/03/12 09:45:21;;;;;;;26.00;21.15;;;;;;;-146.18;100.00;67994.34;10445764;27;20053;-75
2024/03/12 09:50:19;;;;;;;25.50;21.67;;;;;;;-146.18;100.00;67994.34;10460934;27;20043;-75
2024/03/12 09:55:18;;;;;;;26.05;22.02;;;;;;;-146.18;100.00;67994.34;10449321;27;20074;-74
2024/03/12 10:00:27;;;;;;;27.13;20.40;;;;;;;-146.18;100.00;67994.34;10442898;27;20055;-74
2024/03/12 10:05:24;;;;;;;27.30;21.85;;;;;;;-146.18;100.00;67994.34;10460929;27;20053;-74
2024/03/12 10:10:22;;;;;;;22.23;19.50;;;;;;;-146.18;100.00;67994.34;10454857;27;20474;-74
2024/03/12 10:15:19;;;;;;;22.80;20.17;;;;;;;-146.18;100.00;67994.34;10447864;27;20048;-74
2024/03/12 10:20:17;;;;;;;28.88;21.40;;;;;;;-146.18;100.00;67994.34;10436161;27;20046;-73
2024/03/12 10:25:17;;;;;;;24.55;20.58;;;;;;;-146.18;100.00;67994.34;10456109;27;20051;-73
2024/03/12 10:30:28;;;;;;;30.27;22.27;;;;;;;-146.18;100.00;67994.34;10446157;27;20043;-73
2024/03/12 10:35:25;;;;;;;29.40;23.02;;;;;;;-146.18;100.00;67994.34;10450792;27;20103;-74
2024/03/12 10:40:22;;;;;;;31.65;23.58;;;;;;;-146.18;100.00;67994.34;10462206;27;20042;-75
2024/03/12 10:45:19;;;;;;;32.95;24.83;;;;;;;-146.18;100.00;67994.34;10444677;27;20491;-73
2024/03/12 10:50:16;;;;;;;28.80;23.23;;;;;;;-146.18;100.00;67994.34;10463534;27;20460;-73
2024/03/12 10:55:21;;;;;;;37.55;24.95;;;;;;;-146.18;100.00;67994.34;10458329;27;20072;-74
2024/03/12 11:00:20;;;;;;;34.03;24.65;;;;;;;-146.18;100.00;67994.34;10458072;27;20147;-76
2024/03/12 11:05:20;;;;;;;36.72;25.33;;;;;;;-146.18;100.00;67994.34;10452949;27;20151;-74
2024/03/12 11:10:17;;;;;;;37.30;25.67;;;;;;;-146.18;100.00;67994.34;10456669;27;20052;-73
2024/03/12 11:15:14;;;;;;;39.42;25.23;;;;;;;-146.18;100.00;67994.34;10460129;27;20050;-74
2024/03/12 11:20:12;;;;;;;37.70;26.60;;;;;;;-146.18;100.00;67994.34;10460073;27;20136;-73
2024/03/12 11:25:09;;;;;;;34.47;26.17;;;;;;;-146.18;100.00;67994.34;10473087;27;20047;-74
2024/03/12 11:30:08;;;;;;;41.60;28.10;;;;;;;-146.18;100.00;67994.34;10470228;27;20047;-75
2024/03/12 11:35:09;;;;;;;42.38;28.83;;;;;;;-146.18;100.00;67994.34;10459837;27;20043;-75
2024/03/12 11:40:28;;;;;;;43.05;28.30;;;;;;;-146.18;100.00;67994.34;10453729;27;20489;-74
2024/03/12 11:45:40;;;;;;;39.95;27.50;;;;;;;-146.18;100.00;67994.34;10453500;27;20050;-74
2024/03/12 11:50:43;;;;;;;38.40;27.55;;;;;;;-146.18;100.00;67994.34;10460203;27;20554;-74
2024/03/12 11:56:10;;;;;;;37.55;27.85;;;;;;;-146.18;100.00;67994.34;10470402;27;20108;-73
2024/03/12 12:01:20;;;;;;;50.75;34.15;;;;;;;-146.18;100.00;67994.34;10461341;27;20047;-76
2024/03/12 12:06:19;;;;;;;52.28;33.00;;;;;;;-146.18;100.00;67994.34;10451908;27;20450;-75
2024/03/12 12:11:16;;;;;;;55.67;35.90;;;;;;;-146.18;100.00;67994.34;10466790;27;20494;-73
2024/03/12 12:16:17;;;;;;;53.90;36.00;;;;;;;-146.18;100.00;67994.34;10455161;27;20042;-73
2024/03/12 12:21:18;;;;;;;53.53;34.65;;;;;;;-146.18;100.00;67994.34;10452617;27;20502;-73
2024/03/12 12:26:18;;;;;;;52.40;32.07;;;;;;;-146.18;100.00;67994.34;10456166;27;20042;-73
2024/03/12 12:31:16;;;;;;;52.33;33.78;;;;;;;-146.18;100.00;67994.34;10456940;27;20054;-73
2024/03/12 12:36:14;;;;;;;48.78;33.80;;;;;;;-146.18;100.00;67994.34;10448368;27;20047;-74
2024/03/12 12:41:14;;;;;;;51.35;32.40;;;;;;;-146.18;100.00;67994.34;10441096;27;20047;-73
2024/03/12 12:46:25;;;;;;;42.70;29.52;;;;;;;-146.18;100.00;67994.34;10458065;27;20054;-76
2024/03/12 12:51:23;;;;;;;42.17;29.67;;;;;;;-146.18;100.00;67994.34;10449780;27;20681;-74
2024/03/12 12:56:20;;;;;;;40.13;28.27;;;;;;;-146.18;100.00;67994.34;10441238;27;20047;-73
2024/03/12 13:01:24;;;;;;;34.67;25.25;;;;;;;-146.18;100.00;67994.34;10445979;27;20047;-74
2024/03/12 13:06:23;;;;;;;35.90;24.27;;;;;;;-146.18;100.00;67994.34;10448740;27;20039;-73
2024/03/12 13:11:21;;;;;;;31.85;23.75;;;;;;;-146.18;100.00;67994.34;10454010;27;20046;-73
2024/03/12 13:16:22;;;;;;;32.22;23.52;;;;;;;-146.18;100.00;67994.34;10453844;27;20042;-73
2024/03/12 13:21:21;;;;;;;34.50;24.67;;;;;;;-146.18;100.00;67994.34;10445709;27;20043;-74
2024/03/12 13:26:22;;;;;;;29.63;22.77;;;;;;;-146.18;100.00;67994.34;10444383;27;20137;-74
2024/03/12 13:31:23;;;;;;;34.10;24.93;;;;;;;-146.18;100.00;67994.34;10442592;27;20099;-74
2024/03/12 13:36:22;;;;;;;34.63;24.17;;;;;;;-146.18;100.00;67994.34;10464278;27;20027;-75
2024/03/12 13:41:19;;;;;;;34.58;23.55;;;;;;;-146.18;100.00;67994.34;10450095;27;20662;-73
2024/03/12 13:46:22;;;;;;;35.47;24.10;;;;;;;-146.18;100.00;67994.34;10457249;27;20039;-74
2024/03/12 13:51:19;;;;;;;32.70;23.40;;;;;;;-146.18;100.00;67994.34;10462482;27;20861;-75
2024/03/12 13:56:16;;;;;;;39.42;24.35;;;;;;;-146.18;100.00;67994.34;10446705;27;20111;-76
2024/03/12 14:01:12;;;;;;;34.47;24.45;;;;;;;-146.18;100.00;67994.34;10454624;27;20564;-73
2024/03/12 14:06:09;;;;;;;36.28;25.08;;;;;;;-146.18;100.00;67994.34;10451483;27;20043;-74
2024/03/12 14:11:07;;;;;;;34.50;22.88;;;;;;;-146.18;100.00;67994.34;10448250;27;20050;-73
2024/03/12 14:16:05;;;;;;;32.83;23.63;;;;;;;-146.18;100.00;67994.34;10456988;27;20053;-73
2024/03/12 14:21:01;;;;;;;34.33;22.95;;;;;;;-146.18;100.00;67994.34;10459731;27;20043;-75
2024/03/12 14:25:58;;;;;;;34.33;22.77;;;;;;;-146.18;100.00;67994.34;10453107;27;20490;-76
2024/03/12 14:30:58;;;;;;;32.67;22.58;;;;;;;-146.18;100.00;67994.34;10446607;27;20039;-76
2024/03/12 14:35:55;;;;;;;34.45;22.30;;;;;;;-146.18;100.00;67994.34;10453056;27;20512;-74
2024/03/12 14:40:52;;;;;;;31.27;22.70;;;;;;;-146.18;100.00;67994.34;10450661;27;20099;-74
2024/03/12 14:45:48;;;;;;;37.90;24.67;;;;;;;-146.18;100.00;67994.34;10450077;27;20042;-75
2024/03/12 14:50:45;;;;;;;34.58;25.60;;;;;;;-146.18;100.00;67994.34;10459717;27;20502;-75
2024/03/12 14:55:43;;;;;;;34.55;25.15;;;;;;;-146.18;100.00;67994.34;10445513;27;20379;-76
2024/03/12 15:00:39;;;;;;;35.78;25.05;;;;;;;-146.18;100.00;67994.34;10458768;27;20050;-74
2024/03/12 15:05:36;;;;;;;30.67;23.58;;;;;;;-146.18;100.00;67994.34;10462355;27;20042;-74
2024/03/12 15:10:33;;;;;;;34.28;24.20;;;;;;;-146.18;100.00;67994.34;10447427;27;20043;-73
2024/03/12 15:15:30;;;;;;;33.95;24.15;;;;;;;-146.18;100.00;67994.34;10458375;27;20068;-73
2024/03/12 15:20:26;;;;;;;32.33;24.20;;;;;;;-146.18;100.00;67994.34;10460594;27;20636;-73
2024/03/12 15:25:23;;;;;;;36.33;25.25;;;;;;;-146.18;100.00;67994.34;10465359;27;20045;-74
2024/03/12 15:30:21;;;;;;;31.50;23.17;;;;;;;-146.18;100.00;67994.34;10459577;27;20091;-74
2024/03/12 15:35:18;;;;;;;34.10;25.08;;;;;;;-146.18;100.00;67994.34;10448465;27;20038;-73
2024/03/12 15:40:18;;;;;;;31.48;23.55;;;;;;;-146.18;100.00;67994.34;10449583;27;20717;-73
2024/03/12 15:45:14;;;;;;;32.03;24.63;;;;;;;-146.18;100.00;67994.34;10458043;27;20078;-74
2024/03/12 15:50:11;;;;;;;32.88;24.98;;;;;;;-146.18;100.00;67994.34;10466246;27;20053;-73
2024/03/12 15:55:09;;;;;;;38.60;27.00;;;;;;;-146.18;100.00;67994.34;10455683;27;20417;-74
2024/03/12 16:00:08;;;;;;;37.28;25.75;;;;;;;-146.18;100.00;67994.34;10457094;27;20618;-73
2024/03/12 16:05:05;;;;;;;36.53;28.27;;;;;;;-146.18;100.00;67994.34;10458508;27;20074;-73
2024/03/12 16:10:03;;;;;;;37.10;26.45;;;;;;;-146.18;100.00;67994.34;10449860;27;20042;-73
2024/03/12 16:15:01;;;;;;;35.28;26.65;;;;;;;-146.18;100.00;67994.34;10456337;27;20418;-74
2024/03/12 16:19:58;;;;;;;35.25;26.52;;;;;;;-146.18;100.00;67994.34;10453355;27;20055;-74
2024/03/12 16:24:54;;;;;;;37.72;25.23;;;;;;;-146.18;100.00;67994.34;10452878;27;20050;-73
2024/03/12 16:29:51;;;;;;;40.47;26.48;;;;;;;-146.18;100.00;67994.34;10446775;27;20047;-73
2024/03/12 16:34:47;;;;;;;40.13;26.48;;;;;;;-146.18;100.00;67994.34;10453239;27;20054;-74
2024/03/12 16:39:44;;;;;;;36.05;26.48;;;;;;;-146.18;100.00;67994.34;10446110;27;20038;-74
2024/03/12 16:44:43;;;;;;;39.33;26.88;;;;;;;-146.18;100.00;67994.34;10432452;27;20039;-73
2024/03/12 16:49:39;;;;;;;36.38;26.05;;;;;;;-146.18;100.00;67994.34;10444332;27;20666;-73
2024/03/12 16:54:37;;;;;;;37.95;25.92;;;;;;;-146.18;100.00;67994.34;10448552;27;20051;-72
2024/03/12 16:59:33;;;;;;;34.38;25.65;;;;;;;-146.18;100.00;67994.34;10443236;27;20039;-75
2024/03/12 17:04:30;;;;;;;37.63;27.65;;;;;;;-146.18;100.00;67994.34;10444299;27;20414;-73
2024/03/12 17:09:27;;;;;;;37.20;27.60;;;;;;;-146.18;100.00;67994.34;10445021;27;20047;-73
2024/03/12 17:14:24;;;;;;;37.53;27.17;;;;;;;-146.18;100.00;67994.34;10448881;27;20050;-76
2024/03/12 17:19:33;;;;;;;36.55;27.88;;;;;;;-146.18;100.00;67994.34;10454468;27;20043;-74
2024/03/12 17:24:30;;;;;;;36.05;27.13;;;;;;;-146.18;100.00;67994.34;10448068;27;20067;-76
2024/03/12 17:29:27;;;;;;;39.45;28.83;;;;;;;-146.18;100.00;67994.34;10442455;27;20047;-73
2024/03/12 17:34:24;;;;;;;39.42;28.55;;;;;;;-146.18;100.00;67994.34;10438635;27;20035;-77
2024/03/12 17:39:21;;;;;;;40.25;27.90;;;;;;;-146.18;100.00;67994.34;10440750;27;20567;-76
2024/03/12 17:44:18;;;;;;;40.13;27.27;;;;;;;-146.18;100.00;67994.34;10447007;27;20047;-76
2024/03/12 17:49:20;;;;;;;44.17;29.60;;;;;;;-146.18;100.00;67994.34;10448605;27;20031;-75
2024/03/12 17:54:17;;;;;;;47.15;29.00;;;;;;;-146.18;100.00;67994.34;10438421;27;20107;-78
2024/03/12 17:59:18;;;;;;;43.20;29.52;;;;;;;-146.18;100.00;67994.34;10452668;27;20038;-75
2024/03/12 18:04:15;;;;;;;43.67;28.63;;;;;;;-146.18;100.00;67994.34;10440525;27;20118;-73
2024/03/12 18:09:14;;;;;;;45.53;30.13;;;;;;;-146.18;100.00;67994.34;10437969;27;20046;-74
2024/03/12 18:14:11;;;;;;;48.58;30.70;;;;;;;-146.18;100.00;67994.34;10442347;27;20154;-74
2024/03/12 18:19:07;;;;;;;47.97;31.65;;;;;;;-146.18;100.00;67994.34;10439622;27;20039;-75
2024/03/12 18:24:04;;;;;;;46.85;29.48;;;;;;;-146.18;100.00;67994.34;10449291;27;20126;-74
2024/03/12 18:29:02;;;;;;;45.20;31.58;;;;;;;-146.18;100.00;67994.34;10450741;27;20042;-74
2024/03/12 18:33:59;;;;;;;47.65;29.70;;;;;;;-146.18;100.00;67994.34;10444617;27;20125;-75
2024/03/12 18:38:55;;;;;;;42.70;30.65;;;;;;;-146.18;100.00;67994.34;10452335;27;20047;-74
2024/03/12 18:43:52;;;;;;;48.75;30.83;;;;;;;-146.18;100.00;67994.34;10455701;27;20556;-75
2024/03/12 18:48:49;;;;;;;48.95;31.30;;;;;;;-146.18;100.00;67994.34;10456179;27;20443;-74
2024/03/12 18:53:46;;;;;;;49.80;30.83;;;;;;;-146.18;100.00;67994.34;10450177;27;20111;-75
2024/03/12 18:58:42;;;;;;;45.03;29.80;;;;;;;-146.18;100.00;67994.34;10465573;27;20039;-74
2024/03/12 19:03:49;;;;;;;47.95;30.20;;;;;;;-146.18;100.00;67994.34;10456094;27;20050;-75
2024/03/12 19:08:45;;;;;;;49.85;30.05;;;;;;;-146.18;100.00;67994.34;10444198;27;20039;-75
2024/03/12 19:13:43;;;;;;;51.13;29.77;;;;;;;-146.18;100.00;67994.34;10434964;27;20137;-74
2024/03/12 19:18:49;;;;;;;45.53;27.98;;;;;;;-146.18;100.00;67994.34;10459597;27;20104;-74
2024/03/12 19:23:48;;;;;;;41.40;28.33;;;;;;;-146.18;100.00;67994.34;10454750;27;20092;-74
2024/03/12 19:28:45;;;;;;;38.05;25.95;;;;;;;-146.18;100.00;67994.34;10467957;27;20042;-74
2024/03/12 19:33:43;;;;;;;35.95;25.00;;;;;;;-146.18;100.00;67994.34;10460259;27;20043;-74
2024/03/12 19:38:41;;;;;;;34.15;24.88;;;;;;;-146.18;100.00;67994.34;10449098;27;20038;-74
2024/03/12 19:43:38;;;;;;;33.13;26.02;;;;;;;-146.18;100.00;67994.34;10452993;27;20051;-75
2024/03/12 19:48:35;;;;;;;34.38;25.48;;;;;;;-146.18;100.00;67994.34;10464049;27;20087;-75
2024/03/12 19:53:33;;;;;;;32.78;24.85;;;;;;;-146.18;100.00;67994.34;10448952;27;20092;-75
2024/03/12 19:58:30;;;;;;;30.52;24.75;;;;;;;-146.18;100.00;67994.34;10460043;27;20043;-74
2024/03/12 20:03:27;;;;;;;32.40;22.58;;;;;;;-146.18;100.00;67994.34;10455021;27;20054;-75
2024/03/12 20:08:25;;;;;;;32.15;22.00;;;;;;;-146.18;100.00;67994.34;10447725;27;20031;-74
2024/03/12 20:13:22;;;;;;;32.70;22.13;;;;;;;-146.18;100.00;67994.34;10457445;27;20047;-74
2024/03/12 20:18:19;;;;;;;35.75;22.00;;;;;;;-146.18;100.00;67994.34;10443436;27;20046;-74
2024/03/12 20:23:16;;;;;;;29.83;23.20;;;;;;;-146.18;100.00;67994.34;10450823;27;20051;-76
2024/03/12 20:28:14;;;;;;;32.15;23.15;;;;;;;-146.18;100.00;67994.34;10460009;27;20087;-74
2024/03/12 20:33:13;;;;;;;29.35;22.10;;;;;;;-146.18;100.00;67994.34;10462205;27;20451;-74
2024/03/12 20:38:11;;;;;;;34.15;23.45;;;;;;;-146.18;100.00;67994.34;10446653;27;20070;-74
2024/03/12 20:43:08;;;;;;;45.75;23.95;;;;;;;-146.18;100.00;67994.34;10450637;27;20054;-74
2024/03/12 20:48:08;;;;;;;34.05;23.80;;;;;;;-146.18;100.00;67994.34;10450261;27;20043;-74
2024/03/12 20:53:06;;;;;;;40.55;26.30;;;;;;;-146.18;100.00;67994.34;10444407;27;20076;-75
2024/03/12 20:58:03;;;;;;;36.80;24.85;;;;;;;-146.18;100.00;67994.34;10449955;27;20046;-72
2024/03/12 21:02:59;;;;;;;36.67;25.35;;;;;;;-146.18;100.00;67994.34;10437153;27;20045;-78
2024/03/12 21:07:56;;;;;;;40.63;27.45;;;;;;;-146.18;100.00;67994.34;10437193;27;20050;-74
2024/03/12 21:12:55;;;;;;;39.28;26.85;;;;;;;-146.18;100.00;67994.34;10439490;27;20394;-77
2024/03/12 21:17:52;;;;;;;41.25;28.15;;;;;;;-146.18;100.00;67994.34;10449385;27;20039;-72
2024/03/12 21:22:51;;;;;;;43.88;28.38;;;;;;;-146.18;100.00;67994.34;10446746;27;20043;-72
2024/03/12 21:27:48;;;;;;;37.78;26.98;;;;;;;-146.18;100.00;67994.34;10441573;27;20840;-72
2024/03/12 21:32:44;;;;;;;39.50;27.70;;;;;;;-146.18;100.00;67994.34;10443355;27;20040;-73
2024/03/12 21:37:44;;;;;;;42.25;27.27;;;;;;;-146.18;100.00;67994.34;10452679;27;20502;-71
2024/03/12 21:42:44;;;;;;;44.05;27.33;;;;;;;-146.18;100.00;67994.34;10444800;27;20039;-71
2024/03/12 21:47:41;;;;;;;41.75;27.90;;;;;;;-146.18;100.00;67994.34;10448666;27;20456;-71
2024/03/12 21:52:40;;;;;;;44.33;28.92;;;;;;;-146.18;100.00;67994.34;10460001;27;20137;-71
2024/03/12 21:57:39;;;;;;;36.72;25.45;;;;;;;-146.18;100.00;67994.34;10463654;27;20043;-72